Terminal Aerodrome Forecast
Issued by NWS

Home | Current Version | Previous Version | Text Only | Print | Product List | Glossary On
Versions: 1 2 3 4 5 6 7 8 9 10 11
000
FTUS42 TJSJ 260500 RRA
TAFJBQ
TAF
TJBQ 260543Z 2606/2706 10008KT P6SM VCSH SCT025
     FM261400 08017G22KT P6SM SCT025 SCT035
     FM262300 09009KT P6SM SCT025
      AMD NOT SKED TIL 261100=

USA.gov is the U.S. government's official web portal to all federal, state and local government web resources and services.